Time;durP1;ratioP1;P1;durP2;ratioP2;P2;SDS_P1;SDS_P2;PMS_P1;PMS_P2;Temp;Humidity;BMP_temperature;BMP_pressure;BME280_temperature;BME280_humidity;BME280_pressure;Samples;Min_cycle;Max_cycle;Signal;HPM_P1;HPM_P2
2024/03/15 00:01:12;;;;;;;23.33;14.43;;;9.00;99.90;;;;;;5075045;28;20048;-43
2024/03/15 00:03:39;;;;;;;25.30;15.20;;;8.90;99.90;;;;;;5075414;28;20451;-47
2024/03/15 00:06:06;;;;;;;26.85;15.68;;;8.90;99.90;;;;;;5074683;28;20101;-50
2024/03/15 00:08:33;;;;;;;23.52;14.13;;;8.90;99.90;;;;;;5076653;28;20119;-43
2024/03/15 00:11:00;;;;;;;23.73;15.23;;;8.90;99.90;;;;;;5073088;28;20472;-45
2024/03/15 00:13:30;;;;;;;25.63;15.35;;;8.90;99.90;;;;;;5073997;28;20041;-44
2024/03/15 00:15:57;;;;;;;23.25;15.10;;;8.90;99.90;;;;;;5075655;28;20048;-50
2024/03/15 00:18:24;;;;;;;25.00;14.30;;;8.90;99.90;;;;;;5072483;28;20051;-46
2024/03/15 00:20:51;;;;;;;26.25;15.00;;;8.90;99.90;;;;;;5072362;28;20044;-51
2024/03/15 00:23:17;;;;;;;26.65;15.55;;;9.00;99.90;;;;;;5074594;28;20094;-45
2024/03/15 00:25:44;;;;;;;23.58;15.00;;;9.00;99.90;;;;;;5075760;28;20121;-48
2024/03/15 00:28:11;;;;;;;25.60;14.93;;;9.00;99.90;;;;;;5076028;28;20044;-48
2024/03/15 00:30:41;;;;;;;25.67;13.98;;;9.00;99.90;;;;;;5073447;28;20124;-43
2024/03/15 00:33:08;;;;;;;22.42;14.75;;;8.90;99.90;;;;;;5072728;28;20117;-47
2024/03/15 00:35:35;;;;;;;26.38;15.82;;;9.00;99.90;;;;;;5070696;28;20082;-47
2024/03/15 00:38:02;;;;;;;25.92;15.38;;;8.90;99.90;;;;;;5072595;28;20074;-48
2024/03/15 00:40:29;;;;;;;25.35;14.75;;;8.90;99.90;;;;;;5072865;28;20108;-49
2024/03/15 00:42:56;;;;;;;25.25;15.98;;;9.00;99.90;;;;;;5074334;28;20108;-44
2024/03/15 00:45:24;;;;;;;24.67;14.95;;;9.00;99.90;;;;;;5072717;28;20028;-48
2024/03/15 00:47:54;;;;;;;26.83;15.45;;;9.00;99.90;;;;;;5074172;28;20055;-44
2024/03/15 00:50:22;;;;;;;25.90;16.23;;;9.00;99.90;;;;;;5072417;28;20572;-47
2024/03/15 00:52:49;;;;;;;24.75;14.63;;;9.00;99.90;;;;;;5071436;28;20064;-47
2024/03/15 00:55:19;;;;;;;27.23;15.77;;;9.00;99.90;;;;;;5072633;28;20074;-46
2024/03/15 00:57:46;;;;;;;26.55;15.15;;;9.00;99.90;;;;;;5064738;28;20080;-49
2024/03/15 01:00:13;;;;;;;25.30;15.52;;;9.00;99.90;;;;;;5071894;28;20461;-46
2024/03/15 01:02:40;;;;;;;24.67;15.30;;;9.00;99.90;;;;;;5066826;28;20376;-47
2024/03/15 01:05:07;;;;;;;25.38;15.52;;;9.00;99.90;;;;;;5071552;28;20549;-45
2024/03/15 01:07:35;;;;;;;28.40;16.05;;;9.00;99.90;;;;;;5071445;28;20037;-44
2024/03/15 01:10:01;;;;;;;22.67;15.50;;;9.00;99.90;;;;;;5072944;28;20075;-46
2024/03/15 01:12:28;;;;;;;24.27;15.48;;;8.90;99.90;;;;;;5072100;28;20048;-45
2024/03/15 01:14:55;;;;;;;26.92;16.55;;;8.90;99.90;;;;;;5074704;28;20050;-47
2024/03/15 01:17:22;;;;;;;29.83;16.65;;;9.00;99.90;;;;;;5072677;28;20040;-48
2024/03/15 01:19:49;;;;;;;25.08;14.88;;;9.00;99.90;;;;;;5071881;28;20087;-47
2024/03/15 01:22:16;;;;;;;25.35;15.18;;;9.00;99.90;;;;;;5071587;28;20044;-46
2024/03/15 01:24:43;;;;;;;26.98;16.33;;;8.90;99.90;;;;;;5070568;28;20072;-49
2024/03/15 01:27:11;;;;;;;28.67;17.02;;;8.90;99.90;;;;;;5072888;28;20035;-47
2024/03/15 01:29:38;;;;;;;29.70;16.58;;;8.90;99.90;;;;;;5072151;28;20051;-45
2024/03/15 01:32:04;;;;;;;29.10;16.98;;;8.90;99.90;;;;;;5069463;28;20033;-43
2024/03/15 01:34:32;;;;;;;29.27;16.65;;;8.90;99.90;;;;;;5071356;28;20079;-46
2024/03/15 01:36:59;;;;;;;25.75;15.98;;;8.90;99.90;;;;;;5074544;28;20072;-50
2024/03/15 01:39:26;;;;;;;27.40;15.70;;;9.00;99.90;;;;;;5074630;28;20492;-46
2024/03/15 01:41:53;;;;;;;29.15;17.00;;;9.00;99.90;;;;;;5075594;28;20577;-45
2024/03/15 01:44:20;;;;;;;28.50;16.52;;;9.00;99.90;;;;;;5074213;28;20319;-46
2024/03/15 01:46:46;;;;;;;27.83;16.27;;;8.90;99.90;;;;;;5070664;28;20051;-43
2024/03/15 01:49:13;;;;;;;24.50;15.80;;;8.90;99.90;;;;;;5072402;28;20036;-45
2024/03/15 01:51:41;;;;;;;27.52;17.65;;;8.90;99.90;;;;;;5071324;28;20127;-44
2024/03/15 01:54:10;;;;;;;25.85;16.65;;;8.90;99.90;;;;;;5071023;28;20424;-49
2024/03/15 01:56:37;;;;;;;24.60;14.55;;;8.80;99.90;;;;;;5072313;28;20131;-48
2024/03/15 01:59:04;;;;;;;26.15;16.38;;;8.90;99.90;;;;;;5070577;28;20056;-44
2024/03/15 02:01:31;;;;;;;28.55;16.35;;;8.90;99.90;;;;;;5071560;28;20037;-46
2024/03/15 02:03:58;;;;;;;25.17;15.65;;;8.90;99.90;;;;;;5072863;28;20501;-50
2024/03/15 02:06:25;;;;;;;25.10;16.10;;;8.90;99.90;;;;;;5069094;28;20037;-50
2024/03/15 02:08:55;;;;;;;29.58;17.23;;;8.90;99.90;;;;;;5072446;28;20517;-49
2024/03/15 02:11:22;;;;;;;25.30;15.27;;;8.80;99.90;;;;;;5068718;28;20479;-49
2024/03/15 02:13:50;;;;;;;29.60;16.42;;;8.80;99.90;;;;;;5071795;28;20107;-49
2024/03/15 02:16:17;;;;;;;28.00;16.45;;;8.80;99.90;;;;;;5071410;28;20047;-48
2024/03/15 02:18:44;;;;;;;21.48;14.43;;;8.70;99.90;;;;;;5070988;28;20082;-52
2024/03/15 02:21:11;;;;;;;22.63;14.57;;;8.70;99.90;;;;;;5070320;28;20059;-49
2024/03/15 02:23:39;;;;;;;27.80;15.80;;;8.70;99.90;;;;;;5069601;28;20048;-46
2024/03/15 02:26:07;;;;;;;29.30;17.70;;;8.60;99.90;;;;;;5070651;28;20063;-45
2024/03/15 02:28:36;;;;;;;29.88;16.33;;;8.70;99.90;;;;;;5070036;28;20045;-49
2024/03/15 02:31:03;;;;;;;23.15;14.82;;;8.70;99.90;;;;;;5070586;28;20404;-47
2024/03/15 02:33:29;;;;;;;25.98;14.63;;;8.70;99.90;;;;;;5071237;28;20036;-47
2024/03/15 02:35:57;;;;;;;21.00;13.63;;;8.70;99.90;;;;;;5071134;28;20120;-49
2024/03/15 02:38:26;;;;;;;24.48;15.05;;;8.60;99.90;;;;;;5070740;28;20049;-46
2024/03/15 02:40:53;;;;;;;25.65;14.95;;;8.60;99.90;;;;;;5070959;28;20474;-45
2024/03/15 02:43:20;;;;;;;25.20;15.93;;;8.60;99.90;;;;;;5068557;28;20037;-47
2024/03/15 02:45:47;;;;;;;24.45;15.20;;;8.60;99.90;;;;;;5067729;28;20044;-48
2024/03/15 02:48:14;;;;;;;25.55;15.18;;;8.60;99.90;;;;;;5073029;28;20043;-49
2024/03/15 02:50:41;;;;;;;21.30;14.05;;;8.60;99.90;;;;;;5069644;28;20033;-47
2024/03/15 02:53:08;;;;;;;28.27;15.57;;;8.70;99.90;;;;;;5070078;28;20051;-47
2024/03/15 02:55:35;;;;;;;22.40;14.63;;;8.70;99.90;;;;;;5072108;28;20060;-46
2024/03/15 02:58:02;;;;;;;23.25;15.23;;;8.70;99.90;;;;;;5068632;28;20068;-49
2024/03/15 03:00:32;;;;;;;23.70;14.52;;;8.70;99.90;;;;;;5071787;28;20044;-44
2024/03/15 03:02:59;;;;;;;22.80;14.70;;;8.70;99.90;;;;;;5072699;28;20052;-46
2024/03/15 03:05:26;;;;;;;23.70;14.48;;;8.80;99.90;;;;;;5072802;28;20517;-45
2024/03/15 03:07:53;;;;;;;21.30;13.95;;;8.80;99.90;;;;;;5070216;28;20142;-47
2024/03/15 03:10:20;;;;;;;25.40;15.65;;;8.80;99.90;;;;;;5069273;28;20074;-49
2024/03/15 03:12:47;;;;;;;22.52;13.48;;;8.90;99.90;;;;;;5071124;28;20040;-48
2024/03/15 03:15:16;;;;;;;22.27;14.13;;;8.90;99.90;;;;;;5069683;28;20040;-49
2024/03/15 03:17:45;;;;;;;22.63;13.57;;;8.90;99.90;;;;;;5070746;28;20045;-43
2024/03/15 03:20:18;;;;;;;26.42;16.38;;;8.80;99.90;;;;;;5070332;28;20044;-44
2024/03/15 03:22:48;;;;;;;26.10;16.77;;;8.80;99.90;;;;;;5070478;28;20067;-51
2024/03/15 03:25:15;;;;;;;25.17;16.33;;;8.80;99.90;;;;;;5071209;28;20047;-46
2024/03/15 03:27:42;;;;;;;24.75;16.85;;;8.80;99.90;;;;;;5069164;28;20048;-53
2024/03/15 03:30:10;;;;;;;22.10;14.95;;;8.80;99.90;;;;;;5071970;28;20044;-45
2024/03/15 03:32:38;;;;;;;21.58;13.70;;;8.80;99.90;;;;;;5068387;28;20037;-48
2024/03/15 03:35:05;;;;;;;22.10;13.57;;;8.80;99.90;;;;;;5072623;28;20052;-48
2024/03/15 03:37:32;;;;;;;21.98;13.95;;;8.80;99.90;;;;;;5064264;28;20507;-44
2024/03/15 03:39:59;;;;;;;21.75;13.98;;;8.80;99.90;;;;;;5071234;28;20087;-44
2024/03/15 03:42:27;;;;;;;19.85;13.27;;;8.80;99.90;;;;;;5070036;28;20422;-50
2024/03/15 03:44:54;;;;;;;22.20;13.25;;;8.90;99.90;;;;;;5070548;28;20059;-47
2024/03/15 03:47:22;;;;;;;20.73;12.98;;;8.80;99.90;;;;;;5064590;28;20537;-44
2024/03/15 03:49:52;;;;;;;21.20;13.82;;;8.90;99.90;;;;;;5063653;28;20516;-45
2024/03/15 03:52:19;;;;;;;20.48;13.77;;;8.80;99.90;;;;;;5065533;28;20040;-50
2024/03/15 03:54:46;;;;;;;21.90;13.13;;;8.90;99.90;;;;;;5067658;28;20079;-47
2024/03/15 03:57:23;;;;;;;22.38;13.38;;;8.90;99.90;;;;;;5070168;28;20060;-47
2024/03/15 04:00:16;;;;;;;21.45;13.13;;;8.90;99.90;;;;;;5072428;28;20530;-44
2024/03/15 04:02:49;;;;;;;21.83;14.18;;;9.00;99.90;;;;;;5074282;28;20516;-45
2024/03/15 04:05:18;;;;;;;23.65;13.73;;;9.00;99.90;;;;;;5074850;28;20060;-43
2024/03/15 04:07:48;;;;;;;19.10;13.05;;;9.00;99.90;;;;;;5070683;28;20049;-49
2024/03/15 04:10:15;;;;;;;17.17;12.00;;;9.00;99.90;;;;;;5071816;28;20102;-47
2024/03/15 04:12:45;;;;;;;17.00;11.60;;;9.00;99.90;;;;;;5073631;28;20053;-49
2024/03/15 04:15:14;;;;;;;19.65;13.15;;;9.00;99.90;;;;;;5072347;28;20058;-45
2024/03/15 04:17:58;;;;;;;20.50;12.82;;;8.90;99.90;;;;;;5074171;28;20093;-44
2024/03/15 04:20:26;;;;;;;21.98;12.80;;;8.90;99.90;;;;;;5074366;28;20387;-52
2024/03/15 04:22:55;;;;;;;20.45;12.45;;;8.80;99.90;;;;;;5074164;28;20115;-47
2024/03/15 04:25:23;;;;;;;18.70;12.50;;;8.80;99.90;;;;;;5070929;28;20404;-45
2024/03/15 04:27:53;;;;;;;22.05;12.48;;;8.70;99.90;;;;;;5073559;28;20086;-50
2024/03/15 04:30:22;;;;;;;21.85;13.45;;;8.70;99.90;;;;;;5070287;28;20036;-50
2024/03/15 04:32:50;;;;;;;20.13;12.27;;;8.60;99.90;;;;;;5063560;28;20098;-47
2024/03/15 04:35:18;;;;;;;20.92;13.05;;;8.60;99.90;;;;;;5072001;28;20110;-49
2024/03/15 04:37:45;;;;;;;19.60;13.02;;;8.60;99.90;;;;;;5071201;28;20062;-47
2024/03/15 04:40:14;;;;;;;20.88;12.93;;;8.50;99.90;;;;;;5074766;28;20051;-48
2024/03/15 04:42:41;;;;;;;20.08;12.18;;;8.50;99.90;;;;;;5075649;28;20043;-47
2024/03/15 04:45:09;;;;;;;21.38;12.95;;;8.50;99.90;;;;;;5072490;28;20058;-47
2024/03/15 04:47:38;;;;;;;19.25;12.68;;;8.50;99.90;;;;;;5071771;28;20050;-48
2024/03/15 04:50:07;;;;;;;18.50;12.02;;;8.40;99.90;;;;;;5073841;28;20459;-52
2024/03/15 04:52:33;;;;;;;18.17;12.00;;;8.30;99.90;;;;;;5071549;28;20040;-47
2024/03/15 04:55:01;;;;;;;19.83;13.07;;;8.30;99.90;;;;;;5072906;28;20108;-46
2024/03/15 04:57:28;;;;;;;19.38;12.35;;;8.30;99.90;;;;;;5069196;28;21269;-46
2024/03/15 04:59:55;;;;;;;23.45;13.52;;;8.30;99.90;;;;;;5073683;28;20051;-46
2024/03/15 05:02:22;;;;;;;19.42;13.27;;;8.30;99.90;;;;;;5068989;28;20068;-48
2024/03/15 05:04:49;;;;;;;21.48;13.25;;;8.30;99.90;;;;;;5074389;28;20114;-48
2024/03/15 05:07:16;;;;;;;21.25;13.40;;;8.20;99.90;;;;;;5068231;28;20274;-48
2024/03/15 05:09:44;;;;;;;21.08;12.90;;;8.30;99.90;;;;;;5074112;28;20120;-51
2024/03/15 05:12:12;;;;;;;23.77;14.00;;;8.30;99.90;;;;;;5072863;28;20575;-48
2024/03/15 05:14:39;;;;;;;21.50;12.90;;;8.30;99.90;;;;;;5074439;28;20464;-52
2024/03/15 05:17:07;;;;;;;20.00;12.77;;;8.30;99.90;;;;;;5070679;28;20044;-47
2024/03/15 05:19:34;;;;;;;20.95;12.63;;;8.30;99.90;;;;;;5071119;28;20036;-47
2024/03/15 05:22:05;;;;;;;20.33;12.50;;;8.30;99.90;;;;;;5075769;28;20421;-50
2024/03/15 05:24:33;;;;;;;20.15;12.50;;;8.30;99.90;;;;;;5065402;28;20052;-44
2024/03/15 05:27:00;;;;;;;19.20;11.43;;;8.30;99.90;;;;;;5074646;28;20068;-47
2024/03/15 05:29:29;;;;;;;17.95;12.57;;;8.30;99.90;;;;;;5073310;28;20094;-45
2024/03/15 05:31:57;;;;;;;17.13;11.45;;;8.40;99.90;;;;;;5073505;28;20064;-53
2024/03/15 05:34:24;;;;;;;21.13;12.85;;;8.30;99.90;;;;;;5072044;28;20079;-42
2024/03/15 05:36:50;;;;;;;19.23;11.63;;;8.30;99.90;;;;;;5070804;28;20209;-47
2024/03/15 05:39:17;;;;;;;20.63;13.27;;;8.30;99.90;;;;;;5072758;28;20043;-47
2024/03/15 05:41:45;;;;;;;23.88;14.18;;;8.30;99.90;;;;;;5072242;28;20056;-50
2024/03/15 05:44:12;;;;;;;19.33;12.50;;;8.20;99.90;;;;;;5072233;28;20040;-47
2024/03/15 05:46:40;;;;;;;19.05;12.48;;;8.20;99.90;;;;;;5070508;28;20486;-49
2024/03/15 05:49:07;;;;;;;18.13;12.05;;;8.20;99.90;;;;;;5067423;28;20037;-47
2024/03/15 05:51:34;;;;;;;21.13;12.77;;;8.20;99.90;;;;;;5066402;28;20466;-45
2024/03/15 05:54:01;;;;;;;17.67;11.65;;;8.30;99.90;;;;;;5072555;28;20056;-52
2024/03/15 05:56:28;;;;;;;18.83;11.23;;;8.30;99.90;;;;;;5068141;28;20577;-48
2024/03/15 05:58:55;;;;;;;18.45;11.77;;;8.30;99.90;;;;;;5067951;28;20056;-49
2024/03/15 06:01:22;;;;;;;21.92;12.55;;;8.30;99.90;;;;;;5073732;28;20624;-48
2024/03/15 06:03:49;;;;;;;17.25;12.45;;;8.40;99.90;;;;;;5072482;28;20056;-46
2024/03/15 06:06:16;;;;;;;19.45;12.68;;;8.40;99.90;;;;;;5071539;28;20524;-47
2024/03/15 06:08:43;;;;;;;18.52;11.52;;;8.50;99.90;;;;;;5071582;28;20136;-45
2024/03/15 06:11:10;;;;;;;19.75;12.25;;;8.60;99.90;;;;;;5072618;28;20071;-50
2024/03/15 06:13:37;;;;;;;18.02;11.65;;;8.70;99.90;;;;;;5075910;28;20142;-49
2024/03/15 06:16:04;;;;;;;18.52;11.93;;;8.70;99.90;;;;;;5067387;28;20136;-47
2024/03/15 06:18:33;;;;;;;16.73;11.10;;;8.80;99.90;;;;;;5069439;28;20044;-47
2024/03/15 06:21:00;;;;;;;21.88;13.50;;;9.00;99.90;;;;;;5067492;28;20505;-49
2024/03/15 06:23:28;;;;;;;20.92;12.82;;;9.10;99.90;;;;;;5070206;28;20040;-48
2024/03/15 06:25:55;;;;;;;20.48;12.98;;;9.20;99.90;;;;;;5071022;28;20048;-50
2024/03/15 06:28:22;;;;;;;21.02;12.48;;;9.30;99.90;;;;;;5072410;28;20456;-50
2024/03/15 06:30:53;;;;;;;16.73;11.32;;;9.40;99.90;;;;;;5069972;28;20049;-44
2024/03/15 06:33:22;;;;;;;17.25;10.98;;;9.60;99.90;;;;;;5065274;28;20043;-44
2024/03/15 06:35:52;;;;;;;15.80;10.40;;;9.70;99.90;;;;;;5072253;28;20048;-48
2024/03/15 06:41:13;;;;;;;18.48;12.18;;;9.80;99.90;;;;;;5073271;28;20127;-48
2024/03/15 06:43:58;;;;;;;16.35;10.40;;;10.00;99.90;;;;;;5074079;28;20048;-47
2024/03/15 06:46:29;;;;;;;16.02;10.60;;;10.10;99.90;;;;;;5070753;28;20045;-51
2024/03/15 06:48:57;;;;;;;20.70;12.50;;;10.10;99.90;;;;;;5068854;28;20048;-48
2024/03/15 06:54:14;;;;;;;17.75;11.63;;;10.30;99.90;;;;;;5069430;28;20127;-46
2024/03/15 06:56:42;;;;;;;15.95;10.98;;;10.30;99.90;;;;;;5069044;28;20055;-47
2024/03/15 06:59:10;;;;;;;18.73;11.40;;;10.40;99.90;;;;;;5069240;28;20052;-52
2024/03/15 07:01:37;;;;;;;16.33;10.07;;;10.40;99.90;;;;;;5071109;28;20119;-48
2024/03/15 07:04:07;;;;;;;15.45;10.02;;;10.50;99.90;;;;;;5071781;28;20060;-44
2024/03/15 07:06:35;;;;;;;16.25;9.82;;;10.50;99.90;;;;;;5065331;28;20052;-49
2024/03/15 07:09:11;;;;;;;17.20;10.23;;;10.60;99.90;;;;;;5067434;28;20120;-46
2024/03/15 07:11:38;;;;;;;13.70;8.75;;;10.60;99.90;;;;;;5066450;28;20051;-48
2024/03/15 07:14:08;;;;;;;14.10;9.43;;;10.60;99.90;;;;;;5071399;28;20055;-43
2024/03/15 07:16:35;;;;;;;13.70;9.32;;;10.70;99.90;;;;;;5069434;28;20043;-48
2024/03/15 07:19:05;;;;;;;14.20;8.90;;;10.80;99.90;;;;;;5071432;28;20258;-45
2024/03/15 07:21:32;;;;;;;12.68;8.57;;;10.90;99.90;;;;;;5073206;28;20044;-46
2024/03/15 07:23:59;;;;;;;13.20;8.70;;;10.90;99.90;;;;;;5072424;28;20052;-51
2024/03/15 07:26:26;;;;;;;19.25;11.10;;;11.00;99.90;;;;;;5070260;28;20098;-48
2024/03/15 07:28:55;;;;;;;18.00;11.02;;;11.10;99.90;;;;;;5073632;28;20522;-46
2024/03/15 07:31:23;;;;;;;14.52;8.82;;;11.20;99.90;;;;;;5070707;28;20071;-49
2024/03/15 07:33:51;;;;;;;12.00;8.85;;;11.30;99.90;;;;;;5071963;28;20045;-49
2024/03/15 07:36:20;;;;;;;12.27;8.20;;;11.40;99.90;;;;;;5077738;28;20131;-49
2024/03/15 07:38:48;;;;;;;14.90;8.52;;;11.50;99.90;;;;;;5073734;28;20071;-48
2024/03/15 07:41:17;;;;;;;14.18;8.02;;;11.60;99.90;;;;;;5075640;28;20044;-47
2024/03/15 07:43:44;;;;;;;14.68;8.13;;;11.70;99.90;;;;;;5073581;28;20475;-50
2024/03/15 07:46:11;;;;;;;11.20;8.32;;;11.80;99.90;;;;;;5069254;28;20669;-47
2024/03/15 07:48:38;;;;;;;11.43;7.72;;;11.90;99.90;;;;;;5072557;28;20044;-52
2024/03/15 07:51:05;;;;;;;15.10;9.23;;;11.90;99.90;;;;;;5075152;28;20047;-44
2024/03/15 07:53:32;;;;;;;13.60;8.23;;;12.00;99.90;;;;;;5066969;28;20053;-48
2024/03/15 07:56:03;;;;;;;12.60;7.40;;;12.10;99.90;;;;;;5076038;28;20106;-47
2024/03/15 07:58:31;;;;;;;11.75;8.20;;;12.20;99.90;;;;;;5066884;28;20036;-50
2024/03/15 08:00:59;;;;;;;11.65;7.88;;;12.20;99.90;;;;;;5075089;28;20055;-45
2024/03/15 08:03:26;;;;;;;12.77;7.82;;;12.40;99.90;;;;;;5075176;28;20135;-47
2024/03/15 08:06:00;;;;;;;11.48;8.10;;;12.40;99.90;;;;;;5071724;28;20049;-47
2024/03/15 08:08:28;;;;;;;12.55;7.68;;;12.50;99.90;;;;;;5074912;28;20128;-46
2024/03/15 08:10:54;;;;;;;11.60;7.70;;;12.50;99.90;;;;;;5073803;28;20072;-51
2024/03/15 08:13:25;;;;;;;12.05;7.13;;;12.60;99.90;;;;;;5075209;28;20054;-48
2024/03/15 08:15:59;;;;;;;10.52;7.45;;;12.70;99.90;;;;;;5073214;28;20085;-46
2024/03/15 08:18:29;;;;;;;12.45;7.13;;;12.80;99.90;;;;;;5071485;28;20044;-45
2024/03/15 08:20:56;;;;;;;13.52;7.72;;;12.80;99.90;;;;;;5074179;28;20044;-49
2024/03/15 08:23:23;;;;;;;11.90;7.20;;;12.70;99.90;;;;;;5071527;28;20469;-49
2024/03/15 08:25:50;;;;;;;14.63;7.82;;;12.80;99.90;;;;;;5072138;28;20049;-51
2024/03/15 08:28:17;;;;;;;11.48;7.60;;;12.80;99.90;;;;;;5068820;28;20040;-47
2024/03/15 08:30:47;;;;;;;10.25;6.82;;;12.70;99.90;;;;;;5072834;28;20048;-53
2024/03/15 08:33:15;;;;;;;17.27;7.63;;;12.80;99.90;;;;;;5075799;28;20286;-49
2024/03/15 08:35:42;;;;;;;12.75;7.13;;;13.00;99.90;;;;;;5070757;28;20536;-45
2024/03/15 08:38:09;;;;;;;16.67;7.85;;;13.50;99.90;;;;;;5076258;28;20043;-47
2024/03/15 08:40:36;;;;;;;14.90;6.93;;;14.00;99.90;;;;;;5072117;28;20052;-47
2024/03/15 08:43:04;;;;;;;10.82;6.53;;;14.40;99.90;;;;;;5073936;28;20159;-46
2024/03/15 08:45:31;;;;;;;10.88;6.20;;;14.70;99.90;;;;;;5074485;28;20064;-46
2024/03/15 08:47:58;;;;;;;16.85;6.70;;;14.90;99.90;;;;;;5074410;28;20051;-45
2024/03/15 08:50:32;;;;;;;9.20;6.20;;;15.30;99.90;;;;;;5072856;28;20041;-53
2024/03/15 08:53:03;;;;;;;11.00;6.68;;;15.30;99.90;;;;;;5074774;28;20032;-47
2024/03/15 08:55:30;;;;;;;8.00;6.15;;;15.30;99.90;;;;;;5073430;28;20142;-45
2024/03/15 08:57:58;;;;;;;10.38;6.28;;;15.40;99.90;;;;;;5070351;28;20102;-47
2024/03/15 09:00:24;;;;;;;11.90;5.88;;;15.30;99.90;;;;;;5073363;28;20045;-47
2024/03/15 09:02:54;;;;;;;8.38;6.03;;;15.20;99.90;;;;;;5073316;28;20052;-44
2024/03/15 09:05:21;;;;;;;6.10;5.00;;;15.10;99.90;;;;;;5075444;28;20393;-43
2024/03/15 09:07:48;;;;;;;6.78;4.60;;;15.20;99.90;;;;;;5077340;28;20338;-47
2024/03/15 09:10:16;;;;;;;9.23;5.13;;;15.30;99.90;;;;;;5077368;28;20059;-44
2024/03/15 09:12:44;;;;;;;8.38;4.38;;;15.30;99.90;;;;;;5076208;28;20508;-50
2024/03/15 09:15:12;;;;;;;6.40;4.53;;;15.30;99.90;;;;;;5075106;28;20046;-43
2024/03/15 09:17:41;;;;;;;6.65;4.43;;;15.30;99.90;;;;;;5075810;28;20102;-48
2024/03/15 09:20:19;;;;;;;8.25;5.07;;;15.30;99.90;;;;;;5076643;28;20040;-48
2024/03/15 09:22:48;;;;;;;7.47;4.95;;;15.30;99.90;;;;;;5074984;28;20071;-45
2024/03/15 09:25:19;;;;;;;8.43;4.70;;;15.20;99.90;;;;;;5077121;28;20500;-49
2024/03/15 09:27:48;;;;;;;8.50;5.18;;;15.10;99.90;;;;;;5068377;28;20040;-45
2024/03/15 09:30:16;;;;;;;10.93;5.32;;;15.10;99.90;;;;;;5071469;28;20491;-49
2024/03/15 09:32:44;;;;;;;7.45;5.68;;;15.20;99.90;;;;;;5068436;28;20048;-48
2024/03/15 09:35:14;;;;;;;6.40;4.78;;;15.40;99.90;;;;;;5070854;28;20427;-44
2024/03/15 09:37:49;;;;;;;6.78;5.35;;;15.40;99.90;;;;;;5064716;28;20306;-50
2024/03/15 09:40:28;;;;;;;6.47;5.07;;;15.50;99.90;;;;;;5072138;28;20064;-45
2024/03/15 09:42:55;;;;;;;8.00;5.22;;;15.40;99.90;;;;;;5070722;28;20102;-46
2024/03/15 09:45:23;;;;;;;8.52;5.30;;;15.50;99.90;;;;;;5070532;28;20112;-47
2024/03/15 09:47:51;;;;;;;7.50;5.53;;;15.50;99.90;;;;;;5065713;28;20041;-48
2024/03/15 09:50:29;;;;;;;9.30;5.22;;;15.70;99.90;;;;;;5073609;28;20040;-44
2024/03/15 09:52:56;;;;;;;8.25;5.30;;;15.60;99.90;;;;;;5070962;28;20045;-49
2024/03/15 09:55:23;;;;;;;7.15;4.95;;;15.50;99.90;;;;;;5067833;28;20050;-49
2024/03/15 09:57:51;;;;;;;6.35;5.05;;;15.50;99.90;;;;;;5064922;28;20302;-48
2024/03/15 10:00:23;;;;;;;8.30;5.22;;;15.60;99.90;;;;;;5071252;28;20044;-50
2024/03/15 10:02:53;;;;;;;9.02;6.38;;;15.70;99.90;;;;;;5070211;28;20041;-48
2024/03/15 10:05:22;;;;;;;6.90;5.22;;;15.70;99.90;;;;;;5072494;28;20121;-50
2024/03/15 10:07:49;;;;;;;10.65;5.20;;;15.80;99.90;;;;;;5062315;28;20056;-49
2024/03/15 10:10:17;;;;;;;7.35;5.53;;;15.80;99.90;;;;;;5071591;28;20589;-48
2024/03/15 10:12:49;;;;;;;8.18;5.55;;;16.00;99.90;;;;;;5068285;28;20117;-44
2024/03/15 10:15:20;;;;;;;8.25;5.40;;;16.00;99.90;;;;;;5069363;28;20046;-48
2024/03/15 10:17:54;;;;;;;6.75;4.97;;;16.20;99.90;;;;;;5067077;28;20056;-49
2024/03/15 10:20:24;;;;;;;9.50;5.47;;;16.40;99.90;;;;;;5075334;28;20044;-48
2024/03/15 10:22:56;;;;;;;8.13;6.22;;;16.50;99.90;;;;;;5071572;28;20497;-52
2024/03/15 10:25:24;;;;;;;;;;;16.60;99.90;;;;;;5076059;28;20097;-49
2024/03/15 10:27:53;;;;;;;8.45;5.35;;;16.80;99.90;;;;;;5071320;28;19925;-49
2024/03/15 10:30:29;;;;;;;8.65;5.75;;;16.90;99.90;;;;;;5070336;28;20033;-49
2024/03/15 10:32:58;;;;;;;8.75;5.50;;;16.80;99.90;;;;;;5068459;28;20036;-46
2024/03/15 10:35:28;;;;;;;7.32;5.68;;;17.00;99.90;;;;;;5074268;28;20048;-49
2024/03/15 10:37:55;;;;;;;9.02;5.90;;;17.10;99.90;;;;;;5069676;28;20082;-47
2024/03/15 10:40:24;;;;;;;8.10;5.30;;;17.40;99.90;;;;;;5071464;28;20075;-47
2024/03/15 10:42:52;;;;;;;6.68;5.35;;;17.70;99.90;;;;;;5071813;28;20044;-51
2024/03/15 10:45:25;;;;;;;7.00;5.85;;;17.90;99.90;;;;;;5074398;28;20067;-45
2024/03/15 10:47:54;;;;;;;7.65;5.63;;;18.00;99.90;;;;;;5073762;28;20093;-45
2024/03/15 10:50:27;;;;;;;7.22;5.68;;;18.40;99.90;;;;;;5076552;28;20047;-49
2024/03/15 10:52:55;;;;;;;6.45;5.28;;;18.50;99.90;;;;;;5064511;28;20454;-46
2024/03/15 10:55:28;;;;;;;7.10;5.30;;;18.40;99.90;;;;;;5069610;28;20036;-45
2024/03/15 10:57:59;;;;;;;;;;;18.50;99.90;;;;;;5061160;28;20064;-52
2024/03/15 11:00:28;;;;;;;7.30;5.60;;;18.50;99.90;;;;;;5072378;28;19927;-47
2024/03/15 11:02:57;;;;;;;7.13;6.05;;;18.50;99.90;;;;;;5072781;28;21129;-48
2024/03/15 11:05:29;;;;;;;10.07;5.80;;;18.90;99.90;;;;;;5064853;28;20451;-51
2024/03/15 11:08:05;;;;;;;8.70;5.28;;;19.20;99.90;;;;;;5069052;28;20036;-53
2024/03/15 11:10:32;;;;;;;8.27;5.80;;;20.10;99.90;;;;;;5065913;28;20139;-46
2024/03/15 11:12:59;;;;;;;5.88;5.28;;;20.00;99.90;;;;;;5069019;28;20040;-47
2024/03/15 11:15:34;;;;;;;8.45;5.60;;;20.10;99.90;;;;;;5067401;28;20040;-49
2024/03/15 11:18:04;;;;;;;5.93;5.25;;;19.90;99.90;;;;;;5071421;28;20049;-49
2024/03/15 11:20:54;;;;;;;7.32;5.20;;;19.60;99.90;;;;;;5066719;28;20040;-50
2024/03/15 11:23:28;;;;;;;7.13;5.35;;;19.50;99.90;;;;;;5061575;28;20126;-47
2024/03/15 11:25:59;;;;;;;8.90;5.20;;;19.40;99.90;;;;;;5066102;28;20053;-49
2024/03/15 11:28:32;;;;;;;6.35;5.45;;;19.80;99.90;;;;;;5067382;28;20048;-49
2024/03/15 11:31:00;;;;;;;5.93;5.18;;;20.00;99.90;;;;;;5065205;28;20064;-49
2024/03/15 11:33:29;;;;;;;6.57;5.07;;;19.70;99.90;;;;;;5063763;28;20052;-47
2024/03/15 11:35:59;;;;;;;7.65;4.80;;;19.20;99.90;;;;;;5069505;28;20049;-46
2024/03/15 11:38:26;;;;;;;5.85;4.85;;;19.00;99.90;;;;;;5066276;28;20102;-47
2024/03/15 11:40:58;;;;;;;8.40;4.70;;;18.70;99.90;;;;;;5070960;28;20052;-50
2024/03/15 11:43:25;;;;;;;5.13;4.45;;;18.40;99.90;;;;;;5070122;28;20049;-44
2024/03/15 11:45:55;;;;;;;8.93;4.72;;;18.20;99.90;;;;;;5066967;28;20068;-48
2024/03/15 11:48:24;;;;;;;5.60;4.68;;;18.20;99.90;;;;;;5075971;28;20086;-47
2024/03/15 11:50:52;;;;;;;6.07;4.70;;;18.10;99.90;;;;;;5066748;28;20105;-46
2024/03/15 11:53:22;;;;;;;6.20;4.65;;;18.00;99.90;;;;;;5064121;28;20056;-49
2024/03/15 11:55:50;;;;;;;5.72;4.60;;;17.90;99.90;;;;;;5061085;28;20051;-52
2024/03/15 11:58:19;;;;;;;5.63;4.30;;;17.90;99.90;;;;;;5069570;28;20037;-50
2024/03/15 12:00:47;;;;;;;5.07;4.18;;;17.80;99.90;;;;;;5068696;28;20131;-45
2024/03/15 12:03:15;;;;;;;6.50;4.68;;;17.90;99.90;;;;;;5074737;28;20119;-49
2024/03/15 12:05:43;;;;;;;6.80;4.60;;;18.10;99.90;;;;;;5067662;28;20045;-47
2024/03/15 12:08:21;;;;;;;5.25;4.40;;;18.40;99.90;;;;;;5070305;28;20139;-47
2024/03/15 12:10:49;;;;;;;6.18;4.40;;;18.50;99.90;;;;;;5070139;28;20606;-48
2024/03/15 12:13:28;;;;;;;5.03;4.53;;;18.90;99.90;;;;;;5069064;28;20089;-44
2024/03/15 12:15:57;;;;;;;5.97;4.72;;;19.60;99.90;;;;;;5068275;28;20045;-46
2024/03/15 12:18:26;;;;;;;5.13;4.40;;;19.50;99.90;;;;;;5073382;28;20049;-49
2024/03/15 12:20:54;;;;;;;5.80;4.95;;;19.40;99.90;;;;;;5069721;28;20521;-47
2024/03/15 12:23:23;;;;;;;4.68;4.28;;;19.10;99.90;;;;;;5072460;28;20071;-44
2024/03/15 12:25:51;;;;;;;5.65;4.20;;;18.80;99.90;;;;;;5067211;28;20053;-49
2024/03/15 12:28:20;;;;;;;6.03;4.45;;;18.80;99.90;;;;;;5072783;28;20055;-47
2024/03/15 12:30:56;;;;;;;4.57;4.18;;;19.10;99.90;;;;;;5075931;28;20820;-48
2024/03/15 12:33:24;;;;;;;5.05;4.55;;;19.00;99.90;;;;;;5065081;28;20051;-50
2024/03/15 12:35:52;;;;;;;5.53;5.03;;;18.40;99.90;;;;;;5071538;28;20467;-48
2024/03/15 12:38:21;;;;;;;5.32;4.82;;;18.10;99.90;;;;;;5065730;28;20054;-45
2024/03/15 12:40:51;;;;;;;5.72;4.75;;;17.70;99.90;;;;;;5066016;28;20040;-52
2024/03/15 12:43:19;;;;;;;5.82;5.07;;;17.40;99.90;;;;;;5067722;28;20072;-47
2024/03/15 12:45:46;;;;;;;5.32;4.82;;;17.40;99.90;;;;;;5064096;28;20051;-46
2024/03/15 12:48:13;;;;;;;5.00;4.50;;;17.30;99.90;;;;;;5071227;28;20072;-54
2024/03/15 12:50:40;;;;;;;5.40;4.60;;;17.30;99.90;;;;;;5072303;28;20041;-48
2024/03/15 12:53:16;;;;;;;6.90;4.32;;;17.30;99.90;;;;;;5068462;28;20044;-53